Henniker, NH

5:48 PM EDT on April 29, 2017 (GMT -0400)
Contoocook River | | Change Station

Elev 522 ft 43.16 °N, 71.86 °W | Updated 3 minutes ago

Mostly Cloudy
Mostly Cloudy
72.7 °F
Feels Like 77 °F
N
4.5
Wind Variable Wind from South
Gusts 6.9 mph

Today
High -- | Low -- °F
--% Chance of Precip.
Yesterday
High -- | Low -- °F
Precip. -- in
Pressure 29.86 in
Visibility 10.0 miles
Clouds Scattered Clouds 7000 ft
Heat Index 77 °F
Dew Point 54 °F
Humidity 52%
Rainfall 0.00 in
Snow Depth Not available.
5:43 AM 7:46 PM
Waxing Crescent, 16% visible
METAR KCON 292051Z AUTO 28013G26KT 10SM SCT070 24/10 A2986 RMK AO2 PK WND 30028/2040 SLP111 T02440100 53006
Pressure 29.86 in
Visibility 10.0 miles
Clouds Scattered Clouds 7000 ft
Heat Index 77 °F
Dew Point 54 °F
Humidity 52%
Rainfall 0.00 in
Snow Depth Not available.
5:43 AM 7:46 PM
Waxing Crescent, 16% visible
METAR KCON 292051Z AUTO 28013G26KT 10SM SCT070 24/10 A2986 RMK AO2 PK WND 30028/2040 SLP111 T02440100 53006

Get Severe Weather Alerts

Thanks for signing up!

Be on the lookout for a verification email in your inbox.

You'll start receiving the daily forecast at 8 AM.

×

10-Day Weather Forecast

Almanac

Astronomy

Apr. 29, 2017 Rise Set
Actual Time
Civil Twilight
Nautical Twilight
Astronomical Twilight
Moon
Length of Visible Light
Length of Day
Tomorrow will be .
, % of the Moon is Illuminated

Today's Extremes

State Highs State Lows

Community

WunderPhotos

WunderBlog® & News

Nearby

Air Quality

  Air Quality AQ Index Pollutant
Not available.

Snow Depth

Station Depth Elevation

Earthquake Activity

City Distance Mag. Time & Date
Minimum magnitude displayed is 2.5.

Coastal Water Temperatures

Place Temperature

Stations

Nearby Weather Stations

Station Location Temp. Windchill Dew Point Humidity Wind Precip. Elev Updated Type
                   

Watches & Warnings

There are currently no watches in effect.